Terminal Aerodrome Forecast
Issued by NWS

Home | Current Version | Previous Version | Graphics & Text | Print | Product List | Glossary On
Versions: 1 2 3 4 5 6 7 8 9 10 11 12
011
FTUS43 KICT 132336
TAFHUT
TAF
KHUT 132336Z 1400/1424 35011KT P6SM FEW250
     FM140300 35007KT P6SM FEW250
     FM141800 33007KT P6SM BKN100=

USA.gov is the U.S. government's official web portal to all federal, state and local government web resources and services.